Time;durP1;ratioP1;P1;durP2;ratioP2;P2;SDS_P1;SDS_P2;PMS_P1;PMS_P2;Temp;Humidity;BMP_temperature;BMP_pressure;BME280_temperature;BME280_humidity;BME280_pressure;Samples;Min_cycle;Max_cycle;Signal;HPM_P1;HPM_P2
2022/07/03 00:00:24;;;;;;;;;;;;;;;29.36;47.81;98917.75;2081392;28;19975;-52
2022/07/03 00:01:24;;;;;;;;;;;;;;;29.37;47.74;98927.63;2086510;28;20010;-47
2022/07/03 00:02:26;;;;;;;;;;;;;;;29.36;47.75;98924.06;2084847;28;19933;-48
2022/07/03 00:03:28;;;;;;;;;;;;;;;29.35;47.95;98925.13;2086644;28;19975;-47
2022/07/03 00:04:30;;;;;;;;;;;;;;;29.34;47.85;98922.69;2086009;28;20375;-53
2022/07/03 00:05:30;;;;;;;;;;;;;;;29.33;47.90;98918.28;2082750;28;19941;-48
2022/07/03 00:06:33;;;;;;;;;;;;;;;29.35;48.00;98921.59;2086465;28;19939;-48
2022/07/03 00:07:34;;;;;;;;;;;;;;;29.35;47.87;98924.31;2087743;28;20036;-49
2022/07/03 00:08:35;;;;;;;;;;;;;;;29.35;47.68;98922.41;2083930;28;19928;-48
2022/07/03 00:09:37;;;;;;;;;;;;;;;29.36;47.66;98923.22;2085214;28;20552;-49
2022/07/03 00:10:37;;;;;;;;;;;;;;;29.37;47.92;98924.88;2084993;28;19924;-49
2022/07/03 00:11:39;;;;;;;;;;;;;;;29.36;47.73;98923.22;2085688;28;19932;-48
2022/07/03 00:12:39;;;;;;;;;;;;;;;29.33;47.75;98924.56;2085605;28;19955;-49
2022/07/03 00:13:41;;;;;;;;;;;;;;;29.35;47.90;98924.31;2084981;28;19935;-46
2022/07/03 00:14:42;;;;;;;;;;;;;;;29.34;47.81;98923.50;2083625;28;19940;-47
2022/07/03 00:15:43;;;;;;;;;;;;;;;29.35;47.92;98925.13;2084365;28;19981;-48
2022/07/03 00:16:45;;;;;;;;;;;;;;;29.36;47.82;98920.47;2080722;28;19993;-47
2022/07/03 00:17:46;;;;;;;;;;;;;;;29.34;47.74;98928.16;2083215;28;19998;-50
2022/07/03 00:18:49;;;;;;;;;;;;;;;29.33;47.94;98924.56;2085380;28;19989;-49
2022/07/03 00:19:49;;;;;;;;;;;;;;;29.34;47.83;98928.16;2085530;28;19928;-52
2022/07/03 00:21:00;;;;;;;;;;;;;;;29.34;47.81;98930.88;2087874;28;19998;-49
2022/07/03 00:22:02;;;;;;;;;;;;;;;29.34;47.86;98931.69;2084908;28;19928;-48
2022/07/03 00:23:05;;;;;;;;;;;;;;;29.33;47.80;98935.50;2086123;28;19928;-47
2022/07/03 00:24:07;;;;;;;;;;;;;;;29.34;47.92;98933.63;2085976;28;19932;-52
2022/07/03 00:25:11;;;;;;;;;;;;;;;29.31;47.78;98926.78;2086311;28;19931;-48
2022/07/03 00:26:12;;;;;;;;;;;;;;;29.34;47.97;98931.69;2086399;28;19924;-53
2022/07/03 00:27:15;;;;;;;;;;;;;;;29.33;47.71;98931.94;2088924;28;20120;-50
2022/07/03 00:28:18;;;;;;;;;;;;;;;29.32;47.87;98933.88;2084079;28;19928;-49
2022/07/03 00:29:21;;;;;;;;;;;;;;;29.31;47.80;98925.94;2086057;28;20666;-50
2022/07/03 00:30:22;;;;;;;;;;;;;;;29.34;47.93;98928.16;2083043;28;19939;-51
2022/07/03 00:31:24;;;;;;;;;;;;;;;29.34;47.93;98928.16;2081139;28;19950;-50
2022/07/03 00:32:25;;;;;;;;;;;;;;;29.30;47.84;98927.03;2087017;28;19935;-50
2022/07/03 00:33:28;;;;;;;;;;;;;;;29.31;47.81;98929.50;2091118;28;20010;-50
2022/07/03 00:34:31;;;;;;;;;;;;;;;29.31;47.88;98920.47;2088017;28;20300;-50
2022/07/03 00:35:32;;;;;;;;;;;;;;;29.31;47.88;98921.31;2089047;28;19939;-51
2022/07/03 00:36:35;;;;;;;;;;;;;;;29.31;47.82;98921.31;2087428;28;19932;-52
2022/07/03 00:37:36;;;;;;;;;;;;;;;29.32;47.88;98922.94;2085888;28;20096;-51
2022/07/03 00:38:37;;;;;;;;;;;;;;;29.31;47.88;98920.47;2086488;28;19944;-48
2022/07/03 00:39:40;;;;;;;;;;;;;;;29.33;47.72;98919.09;2087465;28;20291;-53
2022/07/03 00:40:41;;;;;;;;;;;;;;;29.31;47.83;98917.72;2085483;28;19944;-50
2022/07/03 00:41:44;;;;;;;;;;;;;;;29.31;47.76;98917.72;2089178;28;20812;-50
2022/07/03 00:42:49;;;;;;;;;;;;;;;29.31;47.94;98920.47;2085938;28;19931;-53
2022/07/03 00:43:50;;;;;;;;;;;;;;;29.32;47.84;98922.13;2085708;28;19982;-52
2022/07/03 00:44:52;;;;;;;;;;;;;;;29.30;47.91;98922.38;2085263;28;19928;-50
2022/07/03 00:45:54;;;;;;;;;;;;;;;29.29;47.97;98917.19;2085821;28;19940;-50
2022/07/03 00:46:55;;;;;;;;;;;;;;;29.29;48.05;98919.94;2090814;28;19975;-52
2022/07/03 00:47:56;;;;;;;;;;;;;;;29.28;47.96;98916.38;2084119;28;20646;-48
2022/07/03 00:48:58;;;;;;;;;;;;;;;29.30;47.99;98924.28;2088857;28;20163;-47
2022/07/03 00:50:06;;;;;;;;;;;;;;;29.30;47.92;98918.81;2090253;28;20873;-51
2022/07/03 00:51:07;;;;;;;;;;;;;;;29.31;47.87;98925.94;2089173;28;19929;-51
2022/07/03 00:52:10;;;;;;;;;;;;;;;29.30;48.07;98922.38;2089563;28;22487;-48
2022/07/03 00:53:11;;;;;;;;;;;;;;;29.32;47.87;98924.84;2091084;28;19932;-49
2022/07/03 00:54:17;;;;;;;;;;;;;;;29.30;47.95;98924.28;2089411;28;21184;-48
2022/07/03 00:55:18;;;;;;;;;;;;;;;29.29;47.72;98917.19;2085944;28;20243;-50
2022/07/03 00:56:25;;;;;;;;;;;;;;;29.30;47.86;98924.28;2086209;28;19932;-50
2022/07/03 00:57:26;;;;;;;;;;;;;;;29.30;47.90;98927.84;2084903;28;20023;-50
2022/07/03 00:58:28;;;;;;;;;;;;;;;29.29;47.80;98928.13;2084377;28;19932;-51
2022/07/03 00:59:29;;;;;;;;;;;;;;;29.29;47.62;98923.47;2086894;28;21389;-49
2022/07/03 01:00:31;;;;;;;;;;;;;;;29.29;47.86;98920.75;2089885;28;19929;-48
2022/07/03 01:01:33;;;;;;;;;;;;;;;29.30;47.91;98916.91;2090200;28;19932;-49
2022/07/03 01:02:35;;;;;;;;;;;;;;;29.30;47.56;98910.63;2089832;28;20578;-49
2022/07/03 01:03:39;;;;;;;;;;;;;;;29.31;47.78;98913.13;2090783;28;19943;-49
2022/07/03 01:04:45;;;;;;;;;;;;;;;29.28;47.85;98910.91;2089816;28;19924;-50
2022/07/03 01:05:50;;;;;;;;;;;;;;;29.29;47.85;98906.28;2088097;28;20362;-51
2022/07/03 01:06:53;;;;;;;;;;;;;;;29.28;47.86;98908.19;2084331;28;19928;-51
2022/07/03 01:07:59;;;;;;;;;;;;;;;29.28;47.83;98910.06;2084685;28;19928;-50
2022/07/03 01:09:03;;;;;;;;;;;;;;;29.29;47.84;98914.47;2088417;28;19944;-49
2022/07/03 01:10:05;;;;;;;;;;;;;;;29.29;47.65;98912.56;2086002;28;19939;-49
2022/07/03 01:11:10;;;;;;;;;;;;;;;29.28;47.79;98916.38;2087469;28;19925;-52
2022/07/03 01:12:19;;;;;;;;;;;;;;;29.27;47.90;98913.91;2084938;28;19929;-54
2022/07/03 01:13:26;;;;;;;;;;;;;;;29.25;47.84;98914.16;2084469;28;19931;-48
2022/07/03 01:14:29;;;;;;;;;;;;;;;29.26;47.84;98915.00;2087365;28;19931;-47
2022/07/03 01:15:36;;;;;;;;;;;;;;;29.28;47.82;98918.28;2087264;28;19935;-51
2022/07/03 01:16:38;;;;;;;;;;;;;;;29.27;47.79;98908.44;2082145;28;20540;-48
2022/07/03 01:17:40;;;;;;;;;;;;;;;29.28;47.84;98921.84;2086306;28;21125;-47
2022/07/03 01:18:44;;;;;;;;;;;;;;;29.26;47.96;98915.81;2087064;28;19935;-49
2022/07/03 01:19:49;;;;;;;;;;;;;;;29.27;47.94;98908.44;2087259;28;19925;-51
2022/07/03 01:20:53;;;;;;;;;;;;;;;29.28;47.76;98915.53;2086723;28;19947;-49
2022/07/03 01:21:58;;;;;;;;;;;;;;;29.25;47.85;98911.44;2089168;28;19924;-49
2022/07/03 01:23:00;;;;;;;;;;;;;;;29.24;47.99;98907.06;2088945;28;19943;-47
2022/07/03 01:24:20;;;;;;;;;;;;;;;29.26;47.91;98917.75;2089914;28;20107;-50
2022/07/03 01:25:23;;;;;;;;;;;;;;;29.25;47.97;98913.34;2090384;28;19924;-48
2022/07/03 01:26:28;;;;;;;;;;;;;;;29.24;47.85;98911.72;2086200;28;19931;-52
2022/07/03 01:27:33;;;;;;;;;;;;;;;29.25;47.80;98911.44;2084258;28;19955;-47
2022/07/03 01:28:37;;;;;;;;;;;;;;;29.24;47.82;98906.25;2086319;28;21081;-46
2022/07/03 01:29:43;;;;;;;;;;;;;;;29.24;47.87;98904.34;2089345;28;19970;-49
2022/07/03 01:30:45;;;;;;;;;;;;;;;29.25;47.89;98905.97;2086386;28;19939;-47
2022/07/03 01:31:48;;;;;;;;;;;;;;;29.25;47.74;98899.69;2087239;28;19925;-49
2022/07/03 01:32:55;;;;;;;;;;;;;;;29.25;47.92;98903.22;2086859;28;19938;-47
2022/07/03 01:33:56;;;;;;;;;;;;;;;29.25;47.79;98902.41;2089196;28;19924;-47
2022/07/03 01:35:01;;;;;;;;;;;;;;;29.24;47.94;98900.78;2090543;28;19924;-48
2022/07/03 01:36:04;;;;;;;;;;;;;;;29.24;47.89;98900.78;2089386;28;19928;-48
2022/07/03 01:37:07;;;;;;;;;;;;;;;29.24;47.74;98901.59;2085841;28;19932;-53
2022/07/03 01:38:09;;;;;;;;;;;;;;;29.25;47.86;98905.16;2084536;28;19932;-49
2022/07/03 01:39:11;;;;;;;;;;;;;;;29.25;47.85;98900.50;2088537;28;19932;-51
2022/07/03 01:40:12;;;;;;;;;;;;;;;29.25;47.84;98900.50;2084274;28;19988;-48
2022/07/03 01:41:14;;;;;;;;;;;;;;;29.25;47.89;98899.69;2085010;28;19951;-51
2022/07/03 01:42:18;;;;;;;;;;;;;;;29.24;47.86;98898.88;2087700;28;19928;-49
2022/07/03 01:43:19;;;;;;;;;;;;;;;29.21;47.81;98893.94;2085079;28;20570;-49
2022/07/03 01:44:21;;;;;;;;;;;;;;;29.22;47.89;98901.03;2086382;28;20416;-46
2022/07/03 01:45:24;;;;;;;;;;;;;;;29.24;47.95;98895.31;2087597;28;19925;-48
2022/07/03 01:46:27;;;;;;;;;;;;;;;29.22;47.95;98901.03;2083136;28;19924;-51
2022/07/03 01:47:29;;;;;;;;;;;;;;;29.24;47.79;98892.59;2085627;28;20021;-50
2022/07/03 01:48:30;;;;;;;;;;;;;;;29.22;47.67;98905.69;2084573;28;19925;-51
2022/07/03 01:49:33;;;;;;;;;;;;;;;29.21;48.06;98893.94;2088186;28;20051;-50
2022/07/03 01:50:34;;;;;;;;;;;;;;;29.21;47.84;98896.69;2086881;28;19928;-50
2022/07/03 01:51:36;;;;;;;;;;;;;;;29.23;47.89;98890.97;2090323;28;20665;-49
2022/07/03 01:52:37;;;;;;;;;;;;;;;29.24;47.78;98903.50;2089056;28;20708;-48
2022/07/03 01:53:43;;;;;;;;;;;;;;;29.23;47.73;98897.22;2091511;28;19929;-48
2022/07/03 01:54:44;;;;;;;;;;;;;;;29.23;47.79;98897.22;2089995;28;19940;-46
2022/07/03 01:55:47;;;;;;;;;;;;;;;29.23;47.76;98896.41;2086912;28;20040;-46
2022/07/03 01:56:47;;;;;;;;;;;;;;;29.23;47.88;98896.41;2085005;28;20470;-47
2022/07/03 01:57:51;;;;;;;;;;;;;;;29.22;47.92;98897.50;2081957;28;19932;-52
2022/07/03 01:58:52;;;;;;;;;;;;;;;29.21;47.85;98890.41;2081409;28;19928;-49
2022/07/03 01:59:54;;;;;;;;;;;;;;;29.23;47.95;98901.88;2086839;28;20039;-48
2022/07/03 02:00:59;;;;;;;;;;;;;;;29.21;47.96;98895.84;2084872;28;20533;-49
2022/07/03 02:02:04;;;;;;;;;;;;;;;29.19;47.89;98890.66;2085354;28;19978;-46
2022/07/03 02:03:07;;;;;;;;;;;;;;;29.20;47.89;98895.03;2087896;28;19929;-47
2022/07/03 02:04:12;;;;;;;;;;;;;;;29.22;47.92;98889.28;2085219;28;19936;-49
2022/07/03 02:05:24;;;;;;;;;;;;;;;29.19;48.12;98893.38;2086214;28;19935;-52
2022/07/03 02:06:28;;;;;;;;;;;;;;;29.21;47.98;98895.84;2084781;28;20012;-47
2022/07/03 02:07:36;;;;;;;;;;;;;;;29.20;47.95;98891.47;2087165;28;19929;-50
2022/07/03 02:08:41;;;;;;;;;;;;;;;29.20;47.98;98894.19;2084264;28;19929;-53
2022/07/03 02:09:45;;;;;;;;;;;;;;;29.21;47.89;98898.59;2091224;28;20016;-47
2022/07/03 02:10:51;;;;;;;;;;;;;;;29.22;47.92;98892.03;2088055;28;19971;-50
2022/07/03 02:11:53;;;;;;;;;;;;;;;29.21;47.81;98893.13;2089686;28;19955;-48
2022/07/03 02:12:59;;;;;;;;;;;;;;;29.20;47.75;98894.19;2083696;28;19928;-49
2022/07/03 02:14:08;;;;;;;;;;;;;;;29.16;47.78;98892.00;2085958;28;20322;-49
2022/07/03 02:15:09;;;;;;;;;;;;;;;29.18;47.86;98887.09;2085389;28;20361;-49
2022/07/03 02:16:12;;;;;;;;;;;;;;;29.18;47.77;98891.75;2085607;28;19932;-50
2022/07/03 02:17:15;;;;;;;;;;;;;;;29.17;48.00;98890.13;2087125;28;19924;-51
2022/07/03 02:18:25;;;;;;;;;;;;;;;29.18;47.99;98889.00;2089610;28;19936;-47
2022/07/03 02:19:31;;;;;;;;;;;;;;;29.18;47.97;98889.84;2088813;28;19925;-49
2022/07/03 02:20:36;;;;;;;;;;;;;;;29.18;47.93;98892.56;2088795;28;21178;-49
2022/07/03 02:21:40;;;;;;;;;;;;;;;29.17;47.86;98887.38;2091012;28;19928;-49
2022/07/03 02:22:43;;;;;;;;;;;;;;;29.17;48.01;98888.19;2087795;28;19925;-48
2022/07/03 02:23:52;;;;;;;;;;;;;;;29.18;47.83;98889.84;2086197;28;19932;-50
2022/07/03 02:24:58;;;;;;;;;;;;;;;29.19;47.93;98885.19;2085732;28;19938;-48
2022/07/03 02:26:00;;;;;;;;;;;;;;;29.18;47.86;98884.38;2086103;28;19929;-51
2022/07/03 02:27:04;;;;;;;;;;;;;;;29.17;47.86;98890.94;2085640;28;21322;-48
2022/07/03 02:28:13;;;;;;;;;;;;;;;29.15;47.91;98886.81;2085195;28;19928;-49
2022/07/03 02:29:16;;;;;;;;;;;;;;;29.16;47.97;98889.28;2086781;28;20019;-48
2022/07/03 02:30:17;;;;;;;;;;;;;;;29.16;47.68;98888.47;2085311;28;24279;-48
2022/07/03 02:31:22;;;;;;;;;;;;;;;29.15;47.83;98890.38;2085698;28;20044;-50
2022/07/03 02:32:23;;;;;;;;;;;;;;;29.16;48.14;98889.28;2086958;28;20455;-51
2022/07/03 02:33:24;;;;;;;;;;;;;;;29.17;47.71;98890.13;2085916;28;19929;-48
2022/07/03 02:34:28;;;;;;;;;;;;;;;29.16;47.92;98883.81;2085007;28;19975;-47
2022/07/03 02:35:29;;;;;;;;;;;;;;;29.16;47.85;98897.47;2089183;28;19939;-48
2022/07/03 02:36:32;;;;;;;;;;;;;;;29.16;47.82;98886.53;2085993;28;20374;-49
2022/07/03 02:37:38;;;;;;;;;;;;;;;29.14;48.01;98894.19;2088803;28;19931;-48
2022/07/03 02:38:44;;;;;;;;;;;;;;;29.14;47.95;98891.47;2082758;28;19924;-49
2022/07/03 02:39:48;;;;;;;;;;;;;;;29.14;47.74;98886.00;2084976;28;19925;-48
2022/07/03 02:40:56;;;;;;;;;;;;;;;29.16;47.92;98889.28;2084616;28;19959;-48
2022/07/03 02:41:58;;;;;;;;;;;;;;;29.15;47.97;98893.09;2087219;28;19925;-49
2022/07/03 02:43:04;;;;;;;;;;;;;;;29.15;48.01;98890.38;2086330;28;20274;-50
2022/07/03 02:44:10;;;;;;;;;;;;;;;29.14;48.10;98894.19;2083315;28;19938;-48
2022/07/03 02:45:12;;;;;;;;;;;;;;;29.15;47.83;98892.28;2089308;28;19929;-50
2022/07/03 02:47:38;;;;;;;;;;;;;;;29.15;48.01;98892.28;2086668;28;19928;-51
2022/07/03 02:48:41;;;;;;;;;;;;;;;29.15;47.94;98887.63;2084798;28;19932;-49
2022/07/03 02:49:50;;;;;;;;;;;;;;;29.16;47.96;98892.00;2084690;28;19979;-49
2022/07/03 02:50:58;;;;;;;;;;;;;;;29.15;47.93;98895.03;2085710;28;19932;-49
2022/07/03 02:52:02;;;;;;;;;;;;;;;29.13;48.01;98887.06;2089465;28;19935;-50
2022/07/03 02:53:05;;;;;;;;;;;;;;;29.13;47.99;98887.06;2088098;28;19932;-51
2022/07/03 02:54:10;;;;;;;;;;;;;;;29.15;47.94;98890.38;2088575;28;19952;-51
2022/07/03 02:55:21;;;;;;;;;;;;;;;29.13;47.78;98881.63;2089682;28;20030;-50
2022/07/03 02:56:27;;;;;;;;;;;;;;;29.13;47.86;98889.81;2084546;28;20001;-50
2022/07/03 02:57:36;;;;;;;;;;;;;;;29.13;47.88;98881.63;2089268;28;20006;-51
2022/07/03 02:58:45;;;;;;;;;;;;;;;29.14;47.80;98877.81;2086847;28;20031;-49
2022/07/03 02:59:53;;;;;;;;;;;;;;;29.15;47.80;98875.91;2085381;28;19964;-48
2022/07/03 03:00:58;;;;;;;;;;;;;;;29.13;47.85;98872.59;2082064;28;19932;-47
2022/07/03 03:02:04;;;;;;;;;;;;;;;29.13;47.87;98878.06;2087114;28;20585;-48
2022/07/03 03:03:05;;;;;;;;;;;;;;;29.12;47.81;98879.97;2080576;28;19932;-48
2022/07/03 03:04:13;;;;;;;;;;;;;;;29.12;47.90;98871.78;2084369;28;19928;-49
2022/07/03 03:05:15;;;;;;;;;;;;;;;29.11;47.94;98870.16;2088471;28;19952;-49
2022/07/03 03:06:21;;;;;;;;;;;;;;;29.10;47.84;98876.69;2088873;28;19930;-50
2022/07/03 03:07:24;;;;;;;;;;;;;;;29.11;47.96;98870.16;2090169;28;19928;-48
2022/07/03 03:08:33;;;;;;;;;;;;;;;29.10;48.04;98871.22;2086523;28;19962;-51
2022/07/03 03:09:39;;;;;;;;;;;;;;;29.11;47.82;98872.03;2090615;28;19928;-48
2022/07/03 03:10:41;;;;;;;;;;;;;;;29.11;47.83;98870.16;2085556;28;20011;-51
2022/07/03 03:11:43;;;;;;;;;;;;;;;29.11;48.03;98874.78;2089004;28;19950;-50
2022/07/03 03:12:47;;;;;;;;;;;;;;;29.10;47.80;98873.16;2088059;28;19925;-53
2022/07/03 03:13:49;;;;;;;;;;;;;;;29.11;47.82;98878.34;2089622;28;19932;-50
2022/07/03 03:14:59;;;;;;;;;;;;;;;29.11;47.94;98880.22;2084271;28;19994;-50
2022/07/03 03:16:04;;;;;;;;;;;;;;;29.08;47.95;98873.41;2084788;28;19939;-49
2022/07/03 03:17:06;;;;;;;;;;;;;;;29.11;47.83;98874.78;2086666;28;19929;-51
2022/07/03 03:18:10;;;;;;;;;;;;;;;29.09;47.89;98868.78;2086977;28;19939;-52
2022/07/03 03:19:12;;;;;;;;;;;;;;;29.10;47.94;98876.69;2086206;28;19928;-53
2022/07/03 03:20:15;;;;;;;;;;;;;;;29.08;47.88;98875.31;2082183;28;20027;-47
2022/07/03 03:21:18;;;;;;;;;;;;;;;29.07;47.80;98866.31;2088181;28;20678;-49
2022/07/03 03:22:26;;;;;;;;;;;;;;;29.09;47.77;98866.88;2085826;28;19928;-51
2022/07/03 03:23:34;;;;;;;;;;;;;;;29.09;47.91;98877.78;2089020;28;19924;-49
2022/07/03 03:24:35;;;;;;;;;;;;;;;29.09;48.00;98869.59;2087641;28;19929;-50
2022/07/03 03:25:36;;;;;;;;;;;;;;;29.10;47.97;98864.94;2090119;28;20625;-50
2022/07/03 03:26:38;;;;;;;;;;;;;;;29.10;47.84;98867.69;2089009;28;19928;-49
2022/07/03 03:27:39;;;;;;;;;;;;;;;29.10;47.94;98871.22;2089863;28;19939;-51
2022/07/03 03:28:41;;;;;;;;;;;;;;;29.10;47.83;98870.41;2088628;28;19928;-50
2022/07/03 03:29:42;;;;;;;;;;;;;;;29.10;47.80;98875.88;2087799;28;19933;-52
2022/07/03 03:30:45;;;;;;;;;;;;;;;29.10;47.92;98867.69;2083760;28;19928;-51
2022/07/03 03:31:46;;;;;;;;;;;;;;;29.09;47.84;98872.31;2086420;28;19928;-50
2022/07/03 03:32:48;;;;;;;;;;;;;;;29.10;47.90;98868.50;2086174;28;20352;-47
2022/07/03 03:33:50;;;;;;;;;;;;;;;29.09;47.93;98872.31;2087388;28;19944;-50
2022/07/03 03:34:50;;;;;;;;;;;;;;;29.09;47.56;98869.59;2084978;28;19928;-47
2022/07/03 03:35:52;;;;;;;;;;;;;;;29.09;47.90;98875.06;2087421;28;19925;-52
2022/07/03 03:36:54;;;;;;;;;;;;;;;29.09;47.81;98871.50;2087198;28;19931;-48
2022/07/03 03:37:54;;;;;;;;;;;;;;;29.08;47.98;98872.56;2088207;28;19929;-47
2022/07/03 03:38:56;;;;;;;;;;;;;;;29.10;47.83;98873.97;2087677;28;19951;-53
2022/07/03 03:39:57;;;;;;;;;;;;;;;29.10;47.73;98871.22;2089055;28;19977;-48
2022/07/03 03:40:58;;;;;;;;;;;;;;;29.10;47.76;98867.69;2089310;28;20617;-48
2022/07/03 03:42:01;;;;;;;;;;;;;;;29.11;47.68;98867.44;2090562;28;20054;-47
2022/07/03 03:43:03;;;;;;;;;;;;;;;29.08;47.71;98867.94;2083964;28;19965;-48
2022/07/03 03:44:05;;;;;;;;;;;;;;;29.10;47.77;98870.41;2083622;28;20005;-52
2022/07/03 03:45:06;;;;;;;;;;;;;;;29.09;47.66;98863.31;2086902;28;20409;-49
2022/07/03 03:46:09;;;;;;;;;;;;;;;29.09;47.97;98866.03;2084768;28;20418;-50
2022/07/03 03:47:10;;;;;;;;;;;;;;;29.08;47.84;98870.66;2088553;28;19932;-48
2022/07/03 03:48:11;;;;;;;;;;;;;;;29.06;47.96;98872.88;2086139;28;19924;-48
2022/07/03 03:49:12;;;;;;;;;;;;;;;29.07;47.92;98866.31;2088035;28;19929;-51
2022/07/03 03:50:14;;;;;;;;;;;;;;;29.08;47.88;98867.13;2087941;28;19976;-48
2022/07/03 03:51:14;;;;;;;;;;;;;;;29.08;47.90;98873.41;2087422;28;19925;-50
2022/07/03 03:52:16;;;;;;;;;;;;;;;29.08;47.82;98869.84;2085035;28;19928;-50
2022/07/03 03:53:18;;;;;;;;;;;;;;;29.07;47.63;98860.84;2082694;28;21207;-52
2022/07/03 03:54:19;;;;;;;;;;;;;;;29.07;47.92;98860.84;2086057;28;20257;-50
2022/07/03 03:55:21;;;;;;;;;;;;;;;29.08;48.00;98859.75;2090163;28;19977;-51
2022/07/03 03:56:22;;;;;;;;;;;;;;;29.07;47.77;98866.31;2089536;28;20305;-50
2022/07/03 03:57:24;;;;;;;;;;;;;;;29.07;47.91;98873.69;2090510;28;19940;-53
2022/07/03 03:58:25;;;;;;;;;;;;;;;29.07;47.74;98865.50;2089359;28;19990;-50
2022/07/03 03:59:27;;;;;;;;;;;;;;;29.06;47.91;98872.88;2091653;28;19939;-50
2022/07/03 04:00:27;;;;;;;;;;;;;;;29.07;48.07;98877.22;2088951;28;20017;-51
2022/07/03 04:01:30;;;;;;;;;;;;;;;29.04;47.85;98872.31;2086412;28;19928;-47
2022/07/03 04:02:31;;;;;;;;;;;;;;;29.05;47.95;98879.41;2085889;28;19932;-52
2022/07/03 04:03:33;;;;;;;;;;;;;;;29.05;47.88;98870.38;2089017;28;19943;-50
2022/07/03 04:04:34;;;;;;;;;;;;;;;29.05;47.81;98873.94;2087189;28;19924;-52
2022/07/03 04:05:35;;;;;;;;;;;;;;;29.04;47.80;98868.75;2085782;28;20049;-52
2022/07/03 04:06:36;;;;;;;;;;;;;;;29.04;47.79;98868.75;2087074;28;20270;-49
2022/07/03 04:07:37;;;;;;;;;;;;;;;29.04;47.93;98869.56;2091235;28;19924;-49
2022/07/03 04:08:38;;;;;;;;;;;;;;;29.04;47.58;98864.09;2085920;28;20421;-51
2022/07/03 04:09:40;;;;;;;;;;;;;;;29.06;47.84;98867.41;2087380;28;19979;-48
2022/07/03 04:10:40;;;;;;;;;;;;;;;29.05;47.91;98868.47;2086021;28;20008;-51
2022/07/03 04:11:42;;;;;;;;;;;;;;;29.04;47.93;98863.28;2087788;28;20051;-47
2022/07/03 04:12:42;;;;;;;;;;;;;;;29.04;47.96;98866.03;2088566;28;19932;-50
2022/07/03 04:13:45;;;;;;;;;;;;;;;29.02;47.96;98871.72;2090577;28;19982;-50
2022/07/03 04:14:45;;;;;;;;;;;;;;;29.03;47.79;98876.13;2087370;28;20125;-50
2022/07/03 04:15:47;;;;;;;;;;;;;;;29.03;47.89;98878.88;2091082;28;19924;-49
2022/07/03 04:16:49;;;;;;;;;;;;;;;29.00;48.04;98875.78;2087469;28;19933;-52
2022/07/03 04:17:51;;;;;;;;;;;;;;;29.00;47.97;98870.31;2087242;28;19929;-51
2022/07/03 04:18:52;;;;;;;;;;;;;;;29.02;47.96;98877.16;2088545;28;20681;-50
2022/07/03 04:19:54;;;;;;;;;;;;;;;29.01;47.94;98878.25;2079998;28;19932;-50
2022/07/03 04:20:54;;;;;;;;;;;;;;;29.00;48.01;98876.59;2086093;28;19936;-51
2022/07/03 04:21:56;;;;;;;;;;;;;;;29.02;47.95;98882.63;2089996;28;20353;-50
2022/07/03 04:22:56;;;;;;;;;;;;;;;29.02;47.97;98879.09;2089757;28;19924;-51
2022/07/03 04:23:58;;;;;;;;;;;;;;;29.02;47.96;98884.53;2093062;28;19963;-51
2022/07/03 04:24:58;;;;;;;;;;;;;;;29.01;48.05;98886.47;2092321;28;20294;-50
2022/07/03 04:26:03;;;;;;;;;;;;;;;29.00;47.89;98890.25;2091014;28;19935;-48
2022/07/03 04:27:04;;;;;;;;;;;;;;;29.00;48.01;98892.16;2090394;28;20285;-48
2022/07/03 04:28:06;;;;;;;;;;;;;;;28.98;48.06;98892.47;2089719;28;19959;-50
2022/07/03 04:29:06;;;;;;;;;;;;;;;28.99;47.94;98885.91;2087697;28;19932;-49
2022/07/03 04:30:10;;;;;;;;;;;;;;;28.99;47.97;98894.09;2090189;28;20009;-50
2022/07/03 04:31:10;;;;;;;;;;;;;;;28.98;47.96;98884.25;2090172;28;20015;-49
2022/07/03 04:32:13;;;;;;;;;;;;;;;29.01;47.75;98885.66;2089790;28;19932;-50
2022/07/03 04:33:14;;;;;;;;;;;;;;;29.01;47.81;98889.19;2090498;28;19924;-47
2022/07/03 04:34:16;;;;;;;;;;;;;;;28.96;48.00;98883.69;2088562;28;20476;-49
2022/07/03 04:35:16;;;;;;;;;;;;;;;28.97;48.02;98893.53;2090143;28;19928;-48
2022/07/03 04:36:18;;;;;;;;;;;;;;;28.95;48.00;98893.00;2089151;28;20470;-52
2022/07/03 04:37:19;;;;;;;;;;;;;;;28.97;48.11;98896.25;2088867;28;19983;-52
2022/07/03 04:38:20;;;;;;;;;;;;;;;28.99;47.98;98890.53;2088343;28;20397;-50
2022/07/03 04:39:21;;;;;;;;;;;;;;;28.98;47.88;98887.00;2093372;28;19925;-51
2022/07/03 04:40:23;;;;;;;;;;;;;;;28.99;47.96;98890.53;2091107;28;20562;-49
2022/07/03 04:41:24;;;;;;;;;;;;;;;29.00;47.92;98887.53;2093745;28;19932;-49
2022/07/03 04:42:25;;;;;;;;;;;;;;;28.98;47.98;98897.91;2089462;28;20077;-50
2022/07/03 04:43:27;;;;;;;;;;;;;;;28.98;47.97;98889.72;2089981;28;19940;-52
2022/07/03 04:44:27;;;;;;;;;;;;;;;28.98;47.95;98906.09;2088922;28;19928;-50
2022/07/03 04:45:29;;;;;;;;;;;;;;;28.96;48.05;98900.09;2089472;28;20401;-49
2022/07/03 04:46:29;;;;;;;;;;;;;;;28.97;47.97;98893.53;2088635;28;19951;-49
2022/07/03 04:47:32;;;;;;;;;;;;;;;28.98;48.03;98894.38;2089854;28;19929;-51
2022/07/03 04:48:33;;;;;;;;;;;;;;;28.94;47.98;98888.59;2089216;28;19933;-49
2022/07/03 04:49:35;;;;;;;;;;;;;;;28.95;47.86;98901.19;2089533;28;19959;-51
2022/07/03 04:50:35;;;;;;;;;;;;;;;28.94;47.94;98894.88;2090399;28;21053;-53
2022/07/03 04:51:37;;;;;;;;;;;;;;;28.89;48.09;98891.28;2088595;28;19932;-49
2022/07/03 04:52:37;;;;;;;;;;;;;;;28.90;48.05;98892.97;2087767;28;20640;-50
2022/07/03 04:53:39;;;;;;;;;;;;;;;28.92;47.96;98894.34;2089560;28;19935;-52
2022/07/03 04:54:40;;;;;;;;;;;;;;;28.92;48.04;98896.25;2089692;28;19932;-50
2022/07/03 04:55:41;;;;;;;;;;;;;;;28.94;47.99;98883.94;2091472;28;19951;-49
2022/07/03 04:56:42;;;;;;;;;;;;;;;28.94;47.94;98896.78;2089147;28;19928;-49
2022/07/03 04:57:43;;;;;;;;;;;;;;;28.94;47.94;98891.31;2086967;28;19925;-53
2022/07/03 04:58:45;;;;;;;;;;;;;;;28.96;47.91;98891.91;2087701;28;19999;-49
2022/07/03 04:59:46;;;;;;;;;;;;;;;28.96;47.75;98892.72;2087171;28;20543;-51
2022/07/03 05:00:48;;;;;;;;;;;;;;;28.92;48.01;98891.63;2086009;28;19935;-49
2022/07/03 05:01:49;;;;;;;;;;;;;;;28.93;47.87;98895.16;2088255;28;19936;-50
2022/07/03 05:02:52;;;;;;;;;;;;;;;28.94;48.09;98891.31;2087155;28;20329;-50
2022/07/03 05:03:53;;;;;;;;;;;;;;;28.95;47.93;98891.06;2086524;28;19925;-47
2022/07/03 05:04:54;;;;;;;;;;;;;;;28.93;47.88;98889.69;2087989;28;19963;-49
2022/07/03 05:05:55;;;;;;;;;;;;;;;28.93;47.91;98889.69;2084241;28;20578;-48
2022/07/03 05:06:56;;;;;;;;;;;;;;;28.88;48.06;98892.41;2086370;28;19932;-51
2022/07/03 05:07:57;;;;;;;;;;;;;;;28.89;48.09;98892.16;2088750;28;19925;-49
2022/07/03 05:08:58;;;;;;;;;;;;;;;28.91;47.96;98897.31;2090470;28;19967;-49
2022/07/03 05:09:59;;;;;;;;;;;;;;;28.92;47.92;98896.25;2091501;28;19968;-50
2022/07/03 05:11:00;;;;;;;;;;;;;;;28.94;47.86;98899.53;2088400;28;19936;-50
2022/07/03 05:12:01;;;;;;;;;;;;;;;28.95;47.85;98902.00;2089110;28;19928;-51
2022/07/03 05:13:03;;;;;;;;;;;;;;;28.94;47.99;98899.53;2090435;28;20586;-49
2022/07/03 05:14:04;;;;;;;;;;;;;;;28.95;47.87;98898.44;2091215;28;19924;-51
2022/07/03 05:15:06;;;;;;;;;;;;;;;28.95;47.80;98895.72;2092009;28;19932;-52
2022/07/03 05:16:07;;;;;;;;;;;;;;;28.93;47.85;98895.97;2093239;28;19988;-47
2022/07/03 05:17:08;;;;;;;;;;;;;;;28.93;47.87;98897.88;2089905;28;19924;-51
2022/07/03 05:18:10;;;;;;;;;;;;;;;28.93;47.97;98898.69;2091020;28;19936;-49
2022/07/03 05:19:12;;;;;;;;;;;;;;;28.91;47.75;98889.94;2091494;28;19940;-50
2022/07/03 05:20:27;;;;;;;;;;;;;;;28.92;48.00;98893.53;2091085;28;19924;-49
2022/07/03 05:21:28;;;;;;;;;;;;;;;28.93;47.86;98897.88;2092136;28;19925;-50
2022/07/03 05:22:29;;;;;;;;;;;;;;;28.92;47.81;98898.97;2091994;28;19939;-49
2022/07/03 05:23:31;;;;;;;;;;;;;;;28.91;47.87;98900.06;2092570;28;19966;-48
2022/07/03 05:24:31;;;;;;;;;;;;;;;28.91;47.96;98900.06;2092742;28;19935;-47
2022/07/03 05:25:33;;;;;;;;;;;;;;;28.91;48.00;98891.88;2093248;28;19939;-49
2022/07/03 05:26:33;;;;;;;;;;;;;;;28.90;47.93;98898.41;2091749;28;20544;-50
2022/07/03 05:27:36;;;;;;;;;;;;;;;28.89;48.04;98897.59;2091974;28;19940;-48
2022/07/03 05:28:37;;;;;;;;;;;;;;;28.90;47.86;98899.22;2092135;28;19928;-50